Time;durP1;ratioP1;P1;durP2;ratioP2;P2;SDS_P1;SDS_P2;PMS_P1;PMS_P2;Temp;Humidity;BMP_temperature;BMP_pressure;BME280_temperature;BME280_humidity;BME280_pressure;Samples;Min_cycle;Max_cycle;Signal;HPM_P1;HPM_P2
2021/03/03 00:00:26;;;;;;;11.02;4.20;;;3.20;99.90;;;;;;5039959;28;20033;-70
2021/03/03 00:02:51;;;;;;;9.30;4.45;;;3.30;99.90;;;;;;5056491;28;20400;-70
2021/03/03 00:05:17;;;;;;;14.88;3.83;;;3.40;99.90;;;;;;5059346;28;20048;-69
2021/03/03 00:07:42;;;;;;;15.20;5.15;;;3.40;99.90;;;;;;5060159;28;20562;-69
2021/03/03 00:10:08;;;;;;;;;;;3.30;99.90;;;;;;5060526;28;20032;-69
2021/03/03 00:12:34;;;;;;;8.55;4.15;;;3.10;99.90;;;;;;5059693;28;19916;-69
2021/03/03 00:14:59;;;;;;;16.50;4.38;;;3.10;99.90;;;;;;5050017;28;20049;-70
2021/03/03 00:17:25;;;;;;;15.77;4.15;;;3.00;99.90;;;;;;5036874;28;20045;-70
2021/03/03 00:19:51;;;;;;;14.95;5.00;;;2.90;99.90;;;;;;5046035;28;20044;-69
2021/03/03 00:22:16;;;;;;;13.38;4.82;;;2.90;99.90;;;;;;5041672;28;20075;-69
2021/03/03 00:24:42;;;;;;;10.57;4.43;;;2.80;99.90;;;;;;5046195;28;20540;-71
2021/03/03 00:27:07;;;;;;;8.13;4.25;;;2.80;99.90;;;;;;5045090;28;20044;-70
2021/03/03 00:29:33;;;;;;;18.10;4.53;;;2.70;99.90;;;;;;5046679;28;20037;-70
2021/03/03 00:31:59;;;;;;;8.45;3.83;;;2.70;99.90;;;;;;5045562;28;20123;-70
2021/03/03 00:34:24;;;;;;;17.50;4.50;;;2.70;99.90;;;;;;5044551;28;20099;-69
2021/03/03 00:36:50;;;;;;;;;;;2.80;99.90;;;;;;5046563;28;20037;-70
2021/03/03 00:39:15;;;;;;;19.08;6.28;;;2.80;99.90;;;;;;5046248;28;19916;-69
2021/03/03 00:41:41;;;;;;;12.20;3.95;;;2.90;99.90;;;;;;5045982;28;20041;-70
2021/03/03 00:44:07;;;;;;;16.27;4.20;;;2.90;99.90;;;;;;5045520;28;20041;-68
2021/03/03 00:46:32;;;;;;;11.40;3.80;;;2.70;99.90;;;;;;5039564;28;20041;-69
2021/03/03 00:48:58;;;;;;;9.90;4.35;;;2.70;99.90;;;;;;5043053;28;20029;-69
2021/03/03 00:51:24;;;;;;;9.10;4.25;;;2.60;99.90;;;;;;5046937;28;20048;-69
2021/03/03 00:53:49;;;;;;;12.45;4.65;;;2.50;99.90;;;;;;5037739;28;20072;-69
2021/03/03 00:56:15;;;;;;;14.35;4.50;;;2.50;99.90;;;;;;5026593;28;20033;-70
2021/03/03 00:58:40;;;;;;;;;;;2.50;99.90;;;;;;5047773;28;20041;-69
2021/03/03 01:01:06;;;;;;;12.23;4.78;;;2.50;99.90;;;;;;5045972;28;19913;-70
2021/03/03 01:03:32;;;;;;;16.60;4.70;;;2.50;99.90;;;;;;5046364;28;20055;-69
2021/03/03 01:05:58;;;;;;;13.40;4.03;;;2.50;99.90;;;;;;5046519;28;20123;-69
2021/03/03 01:08:23;;;;;;;10.60;4.18;;;2.60;99.90;;;;;;5028647;28;20042;-69
2021/03/03 01:10:49;;;;;;;12.50;3.92;;;2.60;99.90;;;;;;5045855;28;20108;-70
2021/03/03 01:13:15;;;;;;;13.70;3.50;;;2.70;99.90;;;;;;5044819;28;20055;-69
2021/03/03 01:15:40;;;;;;;12.25;5.22;;;2.80;99.90;;;;;;5045847;28;20063;-70
2021/03/03 01:18:06;;;;;;;12.23;3.97;;;2.90;99.90;;;;;;5045580;28;20037;-70
2021/03/03 01:20:32;;;;;;;9.35;4.35;;;2.90;99.90;;;;;;5046408;28;20128;-70
2021/03/03 01:22:59;;;;;;;21.65;4.65;;;3.00;99.90;;;;;;5045639;28;20048;-69
2021/03/03 01:25:25;;;;;;;14.95;4.28;;;3.10;99.90;;;;;;5045977;28;20041;-69
2021/03/03 01:27:51;;;;;;;8.45;3.58;;;3.40;99.90;;;;;;5046674;28;20036;-70
2021/03/03 01:30:17;;;;;;;13.35;4.03;;;3.40;99.90;;;;;;5045453;28;20408;-69
2021/03/03 01:32:43;;;;;;;19.15;4.63;;;3.40;99.90;;;;;;5046829;28;20041;-70
2021/03/03 01:35:09;;;;;;;18.10;4.07;;;3.30;99.90;;;;;;5046562;28;20041;-69
2021/03/03 01:37:35;;;;;;;19.73;4.30;;;3.20;99.90;;;;;;5046597;28;20045;-69
2021/03/03 01:40:02;;;;;;;10.88;4.97;;;3.20;99.90;;;;;;5047063;28;20089;-69
2021/03/03 01:42:28;;;;;;;16.30;4.82;;;3.30;99.90;;;;;;5045787;28;20120;-69
2021/03/03 01:44:53;;;;;;;15.07;4.13;;;3.30;99.90;;;;;;5045336;28;20507;-69
2021/03/03 01:47:19;;;;;;;;;;;3.20;99.90;;;;;;5045639;28;20037;-70
2021/03/03 01:49:44;;;;;;;10.25;3.72;;;3.10;99.90;;;;;;5045779;28;19944;-69
2021/03/03 01:52:10;;;;;;;8.93;4.65;;;3.00;99.90;;;;;;5045871;28;20041;-70
2021/03/03 01:54:36;;;;;;;12.85;4.15;;;2.90;99.90;;;;;;5046103;28;20115;-69
2021/03/03 01:57:03;;;;;;;13.35;5.40;;;2.80;99.90;;;;;;5045389;28;20080;-70
2021/03/03 01:59:28;;;;;;;17.95;5.57;;;2.70;99.90;;;;;;5046648;28;20736;-69
2021/03/03 02:01:54;;;;;;;17.83;4.40;;;2.70;99.90;;;;;;5043709;28;20528;-69
2021/03/03 02:04:20;;;;;;;17.73;4.53;;;2.70;99.90;;;;;;5045719;28;20059;-69
2021/03/03 02:07:07;;;;;;;12.57;4.32;;;2.70;99.90;;;;;;5042565;28;20041;-69
2021/03/03 02:09:42;;;;;;;;;;;2.70;99.90;;;;;;5034430;28;20045;-69
2021/03/03 02:12:38;;;;;;;11.80;4.50;;;2.60;99.90;;;;;;5045782;28;20423;-69
2021/03/03 02:15:06;;;;;;;14.10;4.72;;;2.60;99.90;;;;;;5042659;28;20048;-69
2021/03/03 02:17:32;;;;;;;14.75;5.00;;;2.60;99.90;;;;;;5043267;28;20107;-69
2021/03/03 02:20:08;;;;;;;13.57;4.38;;;2.60;99.90;;;;;;5045038;28;20045;-69
2021/03/03 02:23:11;;;;;;;15.50;5.55;;;2.70;99.90;;;;;;5044100;28;20124;-69
2021/03/03 02:25:38;;;;;;;25.63;5.28;;;2.60;99.90;;;;;;5041867;28;20049;-69
2021/03/03 02:28:06;;;;;;;11.13;4.18;;;2.60;99.90;;;;;;5044105;28;20112;-69
2021/03/03 02:30:35;;;;;;;19.52;4.97;;;2.50;99.90;;;;;;5045355;28;20041;-69
2021/03/03 02:33:01;;;;;;;29.38;4.80;;;2.60;99.90;;;;;;5045124;28;20091;-69
2021/03/03 02:35:29;;;;;;;10.90;4.35;;;2.60;99.90;;;;;;5041911;28;20041;-69
2021/03/03 02:37:56;;;;;;;11.80;4.40;;;2.50;99.90;;;;;;5044887;28;20095;-69
2021/03/03 02:40:23;;;;;;;10.98;4.30;;;2.40;99.90;;;;;;5045054;28;20041;-69
2021/03/03 02:42:49;;;;;;;10.63;4.47;;;2.40;99.90;;;;;;5045579;28;20755;-69
2021/03/03 02:45:21;;;;;;;14.82;4.78;;;2.30;99.90;;;;;;5044466;28;20051;-69
2021/03/03 02:47:49;;;;;;;19.70;5.53;;;2.30;99.90;;;;;;5038301;28;20115;-69
2021/03/03 02:50:14;;;;;;;13.50;4.65;;;2.30;99.90;;;;;;5045509;28;20040;-69
2021/03/03 02:52:49;;;;;;;13.30;4.85;;;2.30;99.90;;;;;;5045223;28;20041;-69
2021/03/03 02:55:17;;;;;;;13.52;4.43;;;2.30;99.90;;;;;;5044020;28;20727;-69
2021/03/03 02:57:48;;;;;;;10.73;4.63;;;2.30;99.90;;;;;;5032317;28;20489;-69
2021/03/03 03:00:18;;;;;;;13.43;4.20;;;2.40;99.90;;;;;;5024339;28;20041;-69
2021/03/03 03:02:47;;;;;;;15.10;4.38;;;2.40;99.90;;;;;;5026049;28;20184;-69
2021/03/03 03:05:16;;;;;;;13.23;4.50;;;2.40;99.90;;;;;;5044193;28;20060;-69
2021/03/03 03:07:49;;;;;;;16.60;4.72;;;2.40;99.90;;;;;;5042526;28;20043;-69
2021/03/03 03:10:18;;;;;;;17.25;4.97;;;2.20;99.90;;;;;;5039240;28;20037;-69
2021/03/03 03:12:48;;;;;;;21.15;6.32;;;2.30;99.90;;;;;;5044864;28;20087;-69
2021/03/03 03:15:17;;;;;;;17.00;4.63;;;2.20;99.90;;;;;;5044146;28;20048;-69
2021/03/03 03:17:45;;;;;;;20.98;5.28;;;2.10;99.90;;;;;;5035813;28;20047;-69
2021/03/03 03:20:13;;;;;;;15.68;5.00;;;2.10;99.90;;;;;;5044713;28;20048;-69
2021/03/03 03:22:40;;;;;;;13.35;4.50;;;2.10;99.90;;;;;;5045092;28;20114;-69
2021/03/03 03:25:07;;;;;;;12.25;4.32;;;2.20;99.90;;;;;;5044299;28;20731;-69
2021/03/03 03:27:33;;;;;;;10.52;4.18;;;2.20;99.90;;;;;;5044795;28;20041;-69
2021/03/03 03:29:59;;;;;;;16.60;5.03;;;2.20;99.90;;;;;;5045329;28;20076;-69
2021/03/03 03:32:27;;;;;;;11.45;4.97;;;2.30;99.90;;;;;;5043374;28;20784;-69
2021/03/03 03:34:54;;;;;;;22.60;4.00;;;2.30;99.90;;;;;;5038100;28;20087;-69
2021/03/03 03:37:22;;;;;;;14.48;4.30;;;2.30;99.90;;;;;;5024706;28;20095;-69
2021/03/03 03:39:50;;;;;;;12.82;4.75;;;2.30;99.90;;;;;;5025243;28;20092;-69
2021/03/03 03:42:18;;;;;;;10.85;4.75;;;2.30;99.90;;;;;;5033784;28;20041;-69
2021/03/03 03:44:48;;;;;;;11.98;4.82;;;2.30;99.90;;;;;;5045359;28;20037;-69
2021/03/03 03:47:18;;;;;;;15.05;5.50;;;2.20;99.90;;;;;;5043531;28;20056;-69
2021/03/03 03:49:45;;;;;;;15.90;4.35;;;2.20;99.90;;;;;;5045453;28;20114;-69
2021/03/03 03:52:31;;;;;;;13.95;5.03;;;2.20;99.90;;;;;;5047929;28;20532;-69
2021/03/03 03:54:56;;;;;;;8.27;3.72;;;2.20;99.90;;;;;;5047709;28;20072;-69
2021/03/03 03:57:23;;;;;;;11.05;4.60;;;2.20;99.90;;;;;;5048312;28;20701;-69
2021/03/03 03:59:49;;;;;;;14.18;5.53;;;2.10;99.90;;;;;;5048079;28;20037;-69
2021/03/03 04:02:16;;;;;;;15.00;4.40;;;2.10;99.90;;;;;;5044301;28;20094;-70
2021/03/03 04:04:42;;;;;;;17.08;5.38;;;2.10;99.90;;;;;;5029040;28;20048;-70
2021/03/03 04:07:10;;;;;;;12.13;4.50;;;2.00;99.90;;;;;;5028293;28;20071;-69
2021/03/03 04:09:36;;;;;;;10.13;4.10;;;2.10;99.90;;;;;;5037488;28;20060;-69
2021/03/03 04:12:03;;;;;;;12.63;4.32;;;2.10;99.90;;;;;;5044513;28;20077;-69
2021/03/03 04:14:30;;;;;;;6.45;3.75;;;2.00;99.90;;;;;;5048826;28;20630;-69
2021/03/03 04:16:56;;;;;;;23.10;4.93;;;2.00;99.90;;;;;;5046001;28;20044;-69
2021/03/03 04:19:21;;;;;;;11.48;4.05;;;2.00;99.90;;;;;;5044481;28;20068;-70
2021/03/03 04:21:47;;;;;;;10.50;5.10;;;2.00;99.90;;;;;;5046654;28;20075;-69
2021/03/03 04:24:13;;;;;;;16.40;4.72;;;2.10;99.90;;;;;;5047946;28;20037;-69
2021/03/03 04:26:38;;;;;;;16.40;5.40;;;2.00;99.90;;;;;;5048137;28;20041;-69
2021/03/03 04:29:04;;;;;;;12.63;4.65;;;2.00;99.90;;;;;;5046814;28;20037;-69
2021/03/03 04:31:30;;;;;;;18.50;5.10;;;2.00;99.90;;;;;;5040898;28;20123;-69
2021/03/03 04:33:56;;;;;;;13.70;4.43;;;2.10;99.90;;;;;;5047429;28;20421;-69
2021/03/03 04:36:22;;;;;;;18.77;5.03;;;2.10;99.90;;;;;;5047419;28;20041;-69
2021/03/03 04:38:48;;;;;;;11.50;4.90;;;2.10;99.90;;;;;;5047510;28;20037;-69
2021/03/03 04:41:14;;;;;;;19.98;5.43;;;2.10;99.90;;;;;;5045479;28;20033;-69
2021/03/03 04:43:42;;;;;;;14.05;4.88;;;2.10;99.90;;;;;;5047320;28;20068;-69
2021/03/03 04:46:07;;;;;;;22.98;4.57;;;2.10;99.90;;;;;;5032612;28;20125;-69
2021/03/03 04:48:33;;;;;;;16.45;5.55;;;2.20;99.90;;;;;;5041877;28;20053;-69
2021/03/03 04:50:58;;;;;;;15.57;4.00;;;2.30;99.90;;;;;;5047260;28;20063;-69
2021/03/03 04:53:24;;;;;;;9.43;4.50;;;2.30;99.90;;;;;;5047286;28;20049;-69
2021/03/03 04:55:50;;;;;;;18.92;5.47;;;2.30;99.90;;;;;;5041848;28;20060;-70
2021/03/03 04:58:15;;;;;;;18.42;5.07;;;2.30;99.90;;;;;;5031729;28;20037;-69
2021/03/03 05:00:41;;;;;;;10.80;4.20;;;2.30;99.90;;;;;;5046650;28;20056;-70
2021/03/03 05:03:06;;;;;;;37.00;5.95;;;2.30;99.90;;;;;;5047183;28;20090;-69
2021/03/03 05:05:32;;;;;;;18.02;4.78;;;2.30;99.90;;;;;;5038643;28;20529;-69
2021/03/03 05:07:58;;;;;;;13.15;5.13;;;2.20;99.90;;;;;;5042809;28;20037;-69
2021/03/03 05:10:23;;;;;;;11.98;4.68;;;2.20;99.90;;;;;;5057007;28;20067;-69
2021/03/03 05:12:50;;;;;;;17.58;5.55;;;2.10;99.90;;;;;;5038175;28;20117;-69
2021/03/03 05:15:18;;;;;;;17.27;5.43;;;2.20;99.90;;;;;;5026866;28;20044;-69
2021/03/03 05:17:44;;;;;;;13.68;4.80;;;2.10;99.90;;;;;;5033381;28;20519;-69
2021/03/03 05:20:11;;;;;;;13.45;4.70;;;2.10;99.90;;;;;;5047215;28;20037;-69
2021/03/03 05:22:36;;;;;;;19.65;5.13;;;2.10;99.90;;;;;;5046029;28;20033;-69
2021/03/03 05:25:03;;;;;;;13.00;4.38;;;2.10;99.90;;;;;;5044728;28;20660;-69
2021/03/03 05:27:29;;;;;;;15.15;4.35;;;2.10;99.90;;;;;;5046816;28;20503;-69
2021/03/03 05:29:56;;;;;;;17.13;5.05;;;2.10;99.90;;;;;;5046214;28;20481;-69
2021/03/03 05:32:24;;;;;;;15.90;4.30;;;2.10;99.90;;;;;;5045941;28;20073;-69
2021/03/03 05:34:51;;;;;;;15.30;4.25;;;2.10;99.90;;;;;;5046797;28;20041;-69
2021/03/03 05:37:19;;;;;;;15.93;4.22;;;2.00;99.90;;;;;;5045592;28;20822;-69
2021/03/03 05:39:46;;;;;;;15.15;4.47;;;2.00;99.90;;;;;;5046958;28;20037;-69
2021/03/03 05:42:16;;;;;;;16.35;4.30;;;2.00;99.90;;;;;;5046196;28;20049;-69
2021/03/03 05:44:45;;;;;;;13.70;4.70;;;2.00;99.90;;;;;;5045336;28;20049;-69
2021/03/03 05:47:13;;;;;;;16.95;4.78;;;2.00;99.90;;;;;;5044296;28;20065;-69
2021/03/03 05:49:43;;;;;;;13.13;4.50;;;2.00;99.90;;;;;;5045047;28;20102;-70
2021/03/03 05:52:13;;;;;;;9.75;4.65;;;2.00;99.90;;;;;;5047185;28;20037;-69
2021/03/03 05:54:41;;;;;;;14.73;5.55;;;2.10;99.90;;;;;;5046405;28;20052;-69
2021/03/03 05:57:07;;;;;;;17.42;5.00;;;2.10;99.90;;;;;;5045483;28;20037;-69
2021/03/03 05:59:33;;;;;;;15.30;4.90;;;2.10;99.90;;;;;;5045974;28;20047;-69
2021/03/03 06:01:59;;;;;;;14.15;5.15;;;2.10;99.90;;;;;;5045830;28;20075;-69
2021/03/03 06:04:24;;;;;;;16.33;5.20;;;2.20;99.90;;;;;;5045567;28;20066;-69
2021/03/03 06:06:50;;;;;;;14.15;4.72;;;2.20;99.90;;;;;;5045657;28;20083;-69
2021/03/03 06:12:43;;;;;;;14.98;4.25;;;2.20;99.90;;;;;;5037314;28;20045;-66
2021/03/03 06:15:09;;;;;;;23.00;5.13;;;2.30;99.90;;;;;;5044944;28;20063;-67
2021/03/03 06:17:35;;;;;;;18.48;5.60;;;2.30;99.90;;;;;;5045431;28;20485;-68
2021/03/03 06:20:05;;;;;;;16.27;4.90;;;2.40;99.90;;;;;;5040777;28;20033;-68
2021/03/03 06:22:30;;;;;;;15.60;4.78;;;2.40;99.90;;;;;;5044908;28;20045;-68
2021/03/03 06:24:57;;;;;;;13.70;5.28;;;2.50;99.90;;;;;;5045456;28;20549;-68
2021/03/03 06:27:24;;;;;;;14.82;4.93;;;2.60;99.90;;;;;;5041764;28;20045;-68
2021/03/03 06:30:07;;;;;;;17.60;4.72;;;2.70;99.90;;;;;;5046210;28;20485;-68
2021/03/03 06:32:57;;;;;;;14.60;5.07;;;2.80;99.90;;;;;;5045172;28;20124;-68
2021/03/03 06:35:37;;;;;;;15.48;5.60;;;2.80;99.90;;;;;;5045001;28;20044;-68
2021/03/03 06:38:03;;;;;;;15.32;5.10;;;2.90;99.90;;;;;;5031639;28;20432;-68
2021/03/03 06:40:29;;;;;;;15.73;4.75;;;2.90;99.90;;;;;;5045203;28;20059;-68
2021/03/03 06:42:55;;;;;;;10.77;3.58;;;3.00;99.90;;;;;;5045570;28;20037;-68
2021/03/03 06:45:31;;;;;;;17.45;5.03;;;3.10;99.90;;;;;;5043287;28;20041;-68
2021/03/03 06:47:58;;;;;;;12.93;4.97;;;3.20;99.90;;;;;;5042827;28;20044;-68
2021/03/03 06:50:37;;;;;;;12.00;4.55;;;3.20;99.90;;;;;;5046287;28;20049;-67
2021/03/03 06:53:03;;;;;;;20.35;5.00;;;3.30;99.90;;;;;;5044706;28;20045;-67
2021/03/03 06:55:45;;;;;;;16.00;4.45;;;3.30;99.90;;;;;;5045036;28;20087;-67
2021/03/03 06:58:30;;;;;;;12.65;5.13;;;3.30;99.90;;;;;;5041990;28;20051;-67
2021/03/03 07:00:58;;;;;;;19.35;4.55;;;3.30;99.90;;;;;;5040379;28;20242;-67
2021/03/03 07:03:25;;;;;;;16.25;4.40;;;3.30;99.90;;;;;;5045241;28;20064;-67
2021/03/03 07:05:50;;;;;;;23.90;5.28;;;3.30;99.90;;;;;;5045197;28;20052;-68
2021/03/03 07:08:17;;;;;;;12.98;4.32;;;3.40;99.90;;;;;;5044667;28;20040;-67
2021/03/03 07:10:43;;;;;;;10.13;4.30;;;3.40;99.90;;;;;;5045058;28;20056;-67
2021/03/03 07:13:08;;;;;;;17.83;4.72;;;3.50;99.90;;;;;;5043309;28;20493;-69
2021/03/03 07:15:34;;;;;;;11.48;4.55;;;3.60;99.90;;;;;;5043680;28;20072;-69
2021/03/03 07:17:59;;;;;;;;;;;3.60;99.90;;;;;;5044134;28;20041;-69
2021/03/03 07:20:25;;;;;;;11.25;4.35;;;3.70;99.90;;;;;;5043609;28;19927;-69
2021/03/03 07:22:51;;;;;;;;;;;3.80;99.90;;;;;;5044894;28;20401;-67
2021/03/03 07:25:20;;;;;;;26.40;6.20;;;3.90;99.90;;;;;;5046071;28;19954;-67
2021/03/03 07:27:48;;;;;;;12.15;5.30;;;4.00;99.90;;;;;;5046201;28;20068;-68
2021/03/03 07:30:15;;;;;;;63.95;24.27;;;4.10;99.90;;;;;;5047634;28;20033;-67
2021/03/03 07:32:41;;;;;;;55.15;23.75;;;4.10;99.90;;;;;;5047580;28;20040;-67
2021/03/03 07:35:09;;;;;;;54.50;21.95;;;4.20;99.90;;;;;;5047189;28;20502;-67
2021/03/03 07:37:37;;;;;;;51.13;20.35;;;4.20;99.90;;;;;;5046834;28;20063;-68
2021/03/03 07:40:07;;;;;;;36.78;16.63;;;4.30;99.90;;;;;;5047326;28;20040;-68
2021/03/03 07:42:33;;;;;;;37.63;14.73;;;4.30;99.90;;;;;;5046397;28;20697;-68
2021/03/03 07:45:00;;;;;;;34.65;13.05;;;4.30;99.90;;;;;;5048407;28;20486;-67
2021/03/03 07:47:31;;;;;;;26.73;10.95;;;4.40;99.90;;;;;;5047420;28;20099;-67
2021/03/03 07:50:19;;;;;;;25.42;8.50;;;4.60;99.90;;;;;;5047873;28;20837;-67
2021/03/03 07:52:47;;;;;;;223.95;66.75;;;4.70;99.90;;;;;;5048118;28;20044;-69
2021/03/03 07:55:14;;;;;;;301.70;112.88;;;4.90;99.90;;;;;;5046880;28;20128;-68
2021/03/03 07:57:43;;;;;;;156.27;54.92;;;5.10;99.90;;;;;;5049085;28;20361;-67
2021/03/03 08:00:13;;;;;;;119.78;42.88;;;5.30;99.90;;;;;;5049304;28;20080;-67
2021/03/03 08:02:46;;;;;;;108.75;36.08;;;5.60;99.90;;;;;;5029336;28;20045;-67
2021/03/03 08:05:24;;;;;;;77.55;31.77;;;5.70;99.90;;;;;;5028449;28;20076;-67
2021/03/03 08:08:10;;;;;;;67.75;25.95;;;5.80;99.90;;;;;;5028002;28;20120;-67
2021/03/03 08:10:39;;;;;;;44.83;21.85;;;6.00;99.90;;;;;;5044727;28;20163;-67
2021/03/03 08:13:31;;;;;;;59.90;24.70;;;6.00;99.90;;;;;;5047745;28;20128;-67
2021/03/03 08:15:59;;;;;;;51.80;18.83;;;6.00;99.90;;;;;;5045146;28;20044;-67
2021/03/03 08:18:30;;;;;;;52.10;18.08;;;6.10;99.90;;;;;;5047805;28;20044;-67
2021/03/03 08:21:08;;;;;;;45.15;16.42;;;6.20;99.90;;;;;;5047703;28;20107;-66
2021/03/03 08:23:34;;;;;;;47.30;17.60;;;6.40;99.90;;;;;;5048137;28;20045;-65
2021/03/03 08:25:59;;;;;;;;;;;6.40;99.90;;;;;;5048208;28;20416;-71
2021/03/03 08:28:26;;;;;;;36.92;14.27;;;6.50;99.90;;;;;;5048403;28;19917;-67
2021/03/03 08:31:13;;;;;;;43.30;14.40;;;6.50;99.90;;;;;;5036682;28;20119;-70
2021/03/03 08:33:40;;;;;;;39.13;14.93;;;6.70;99.90;;;;;;5029551;28;20049;-67
2021/03/03 08:36:07;;;;;;;36.47;13.63;;;6.70;99.90;;;;;;5039972;28;20045;-70
2021/03/03 08:38:33;;;;;;;33.58;9.40;;;6.90;99.90;;;;;;5027003;28;20245;-66
2021/03/03 08:41:26;;;;;;;;;;;7.00;99.90;;;;;;5030465;28;20500;-63
2021/03/03 08:44:10;;;;;;;21.38;6.40;;;7.10;99.90;;;;;;5045042;28;19982;-64
2021/03/03 08:46:42;;;;;;;17.85;5.05;;;7.30;99.90;;;;;;5045766;28;20048;-64
2021/03/03 08:49:07;;;;;;;16.38;8.55;;;7.40;99.90;;;;;;5046092;28;20037;-68
2021/03/03 08:51:35;;;;;;;;;;;7.60;99.90;;;;;;5047162;28;20055;-67
2021/03/03 08:54:06;;;;;;;21.27;7.93;;;7.80;99.90;;;;;;5044854;28;19923;-66
2021/03/03 08:56:43;;;;;;;19.27;5.32;;;8.00;99.90;;;;;;5032094;28;20128;-67
2021/03/03 08:59:12;;;;;;;23.45;6.65;;;8.20;99.90;;;;;;5027239;28;20041;-64
2021/03/03 09:01:56;;;;;;;18.90;6.05;;;8.30;99.90;;;;;;5025881;28;20556;-65
2021/03/03 09:04:23;;;;;;;21.70;5.55;;;8.40;99.80;;;;;;5026828;28;20497;-65
2021/03/03 09:06:50;;;;;;;23.00;7.03;;;8.60;99.80;;;;;;5027101;28;20076;-66
2021/03/03 09:09:17;;;;;;;15.00;5.78;;;8.80;99.40;;;;;;5032152;28;20029;-68
2021/03/03 09:11:43;;;;;;;17.95;5.93;;;8.90;99.40;;;;;;5046468;28;20064;-70
2021/03/03 09:14:10;;;;;;;17.10;5.65;;;9.10;99.80;;;;;;5046126;28;20063;-65
2021/03/03 09:16:51;;;;;;;23.10;6.18;;;9.20;98.70;;;;;;5045037;28;20059;-65
2021/03/03 09:19:17;;;;;;;10.93;4.88;;;9.40;98.30;;;;;;5045184;28;20452;-65
2021/03/03 09:21:42;;;;;;;;;;;9.50;98.40;;;;;;5045721;28;20032;-65
2021/03/03 09:24:13;;;;;;;15.15;5.15;;;9.70;98.90;;;;;;5045458;28;20320;-65
2021/03/03 09:26:40;;;;;;;16.33;5.32;;;9.90;97.40;;;;;;5045792;28;20033;-65
2021/03/03 09:29:06;;;;;;;17.92;5.65;;;10.10;96.00;;;;;;5046267;28;20528;-65
2021/03/03 09:31:36;;;;;;;14.68;5.60;;;10.30;93.80;;;;;;5027744;28;20061;-65
2021/03/03 09:34:02;;;;;;;24.25;5.55;;;10.40;91.70;;;;;;5030947;28;20346;-65
2021/03/03 09:36:28;;;;;;;;;;;10.60;93.50;;;;;;5045134;28;20041;-65
2021/03/03 09:38:59;;;;;;;24.80;7.50;;;10.70;92.40;;;;;;5045590;28;19917;-65
2021/03/03 09:41:25;;;;;;;15.48;5.10;;;10.80;91.40;;;;;;5046060;28;20041;-66
2021/03/03 09:44:19;;;;;;;25.08;7.45;;;10.90;90.40;;;;;;5046585;28;20048;-66
2021/03/03 09:46:56;;;;;;;22.80;6.57;;;11.00;88.50;;;;;;5016047;28;20048;-65
2021/03/03 09:49:31;;;;;;;22.30;7.47;;;11.10;86.50;;;;;;5040902;28;20033;-65
2021/03/03 09:51:58;;;;;;;20.80;6.15;;;11.20;83.40;;;;;;5046358;28;20041;-65
2021/03/03 09:54:25;;;;;;;25.25;7.88;;;11.40;83.50;;;;;;5045549;28;20152;-65
2021/03/03 09:56:50;;;;;;;19.98;7.20;;;11.50;84.60;;;;;;5045005;28;20045;-65
2021/03/03 09:59:16;;;;;;;;;;;11.60;83.20;;;;;;5046328;28;20596;-65
2021/03/03 10:01:42;;;;;;;23.85;6.32;;;11.70;81.70;;;;;;5045804;28;20057;-66
2021/03/03 10:04:07;;;;;;;;;;;11.90;80.40;;;;;;5045322;28;20041;-67
2021/03/03 10:06:33;;;;;;;23.35;6.03;;;12.00;80.90;;;;;;5029163;28;19967;-66
2021/03/03 10:08:59;;;;;;;;;;;12.30;79.20;;;;;;5029838;28;20033;-66
2021/03/03 10:11:25;;;;;;;28.10;9.18;;;12.50;74.70;;;;;;5041789;28;20468;-66
2021/03/03 10:13:50;;;;;;;;;;;12.70;75.90;;;;;;5043988;28;20037;-66
2021/03/03 10:16:19;;;;;;;29.30;7.70;;;12.70;76.50;;;;;;5042702;28;19920;-66
2021/03/03 10:19:03;;;;;;;17.60;7.68;;;12.70;74.70;;;;;;5043662;28;20048;-66
2021/03/03 10:21:29;;;;;;;27.13;7.18;;;12.70;71.30;;;;;;5044536;28;20110;-65
2021/03/03 10:23:55;;;;;;;;;;;12.70;74.90;;;;;;5045244;28;20049;-66
2021/03/03 10:26:40;;;;;;;28.92;8.65;;;12.70;72.80;;;;;;5043531;28;20479;-66
2021/03/03 10:29:06;;;;;;;29.27;7.50;;;12.70;74.20;;;;;;5040718;28;20091;-66
2021/03/03 10:31:32;;;;;;;24.75;6.88;;;12.70;75.50;;;;;;5045274;28;20524;-66
2021/03/03 10:34:07;;;;;;;;;;;12.70;71.80;;;;;;5044114;28;20041;-66
2021/03/03 10:36:39;;;;;;;24.48;7.85;;;12.80;74.00;;;;;;5042945;28;19947;-66
2021/03/03 10:39:06;;;;;;;23.98;7.55;;;12.90;71.60;;;;;;5039331;28;20037;-66
2021/03/03 10:41:33;;;;;;;22.27;7.18;;;13.10;70.70;;;;;;5026916;28;20045;-66
2021/03/03 10:44:00;;;;;;;26.30;8.93;;;13.20;68.50;;;;;;5044369;28;20051;-66
2021/03/03 10:46:26;;;;;;;31.33;12.20;;;13.40;69.30;;;;;;5041923;28;20049;-67
2021/03/03 10:48:53;;;;;;;;;;;13.50;70.60;;;;;;5040358;28;20378;-65
2021/03/03 10:51:32;;;;;;;27.90;7.73;;;13.50;69.30;;;;;;5043656;28;19975;-65
2021/03/03 10:53:58;;;;;;;28.95;7.60;;;13.60;68.00;;;;;;5045176;28;20341;-65
2021/03/03 10:56:37;;;;;;;;;;;13.70;69.50;;;;;;5044709;28;20488;-66
2021/03/03 10:59:06;;;;;;;32.55;9.57;;;13.70;68.70;;;;;;5038815;28;19921;-66
2021/03/03 11:01:42;;;;;;;27.23;8.80;;;13.70;65.80;;;;;;5044830;28;20041;-65
2021/03/03 11:04:08;;;;;;;;;;;13.80;66.90;;;;;;5036843;28;20052;-67
2021/03/03 11:06:34;;;;;;;17.90;7.57;;;13.90;69.20;;;;;;5041191;28;19920;-65
2021/03/03 11:08:59;;;;;;;;;;;14.00;69.70;;;;;;5028864;28;20516;-66
2021/03/03 11:11:26;;;;;;;18.92;7.05;;;14.20;66.90;;;;;;5043365;28;20018;-64
2021/03/03 11:13:53;;;;;;;29.92;8.50;;;14.40;67.90;;;;;;5033676;28;20673;-64
2021/03/03 11:16:20;;;;;;;26.08;8.93;;;14.50;69.00;;;;;;5024414;28;20128;-64
2021/03/03 11:18:45;;;;;;;22.17;8.63;;;14.60;65.40;;;;;;5037358;28;20107;-64
2021/03/03 11:21:11;;;;;;;;;;;14.60;67.70;;;;;;5037371;28;20034;-64
2021/03/03 11:23:36;;;;;;;28.42;8.02;;;14.70;64.60;;;;;;5028514;28;19978;-64
2021/03/03 11:26:02;;;;;;;;;;;14.80;65.70;;;;;;5044112;28;20860;-64
2021/03/03 11:28:28;;;;;;;29.13;8.10;;;14.80;64.30;;;;;;5039144;28;20618;-64
2021/03/03 11:30:53;;;;;;;;;;;14.80;65.50;;;;;;5023317;28;20095;-69
2021/03/03 11:33:19;;;;;;;24.65;9.88;;;14.70;63.10;;;;;;5024942;28;19921;-66
2021/03/03 11:35:45;;;;;;;;;;;14.60;63.10;;;;;;5035451;28;20045;-64
2021/03/03 11:38:14;;;;;;;20.85;9.32;;;14.70;63.50;;;;;;5044657;23;19940;-70
2021/03/03 11:43:08;;;;;;;21.45;9.40;;;14.90;65.60;;;;;;5067851;22;20048;-72
2021/03/03 11:45:33;;;;;;;;;;;15.10;65.10;;;;;;5034680;28;20041;-72
2021/03/03 11:47:59;;;;;;;20.98;10.20;;;15.10;63.10;;;;;;5063663;28;20003;-68
2021/03/03 11:50:24;;;;;;;;;;;15.20;63.90;;;;;;5056383;28;20040;-70
2021/03/03 11:52:50;;;;;;;26.85;9.57;;;15.30;64.40;;;;;;5034101;28;19967;-65
2021/03/03 11:55:16;;;;;;;;;;;15.30;62.40;;;;;;5038585;28;20508;-65
2021/03/03 11:57:42;;;;;;;33.83;10.10;;;15.30;62.90;;;;;;5037128;28;19912;-65
2021/03/03 12:00:09;;;;;;;;;;;15.20;63.90;;;;;;5044273;28;20432;-65
2021/03/03 12:02:34;;;;;;;30.35;10.70;;;15.10;63.20;;;;;;5042984;28;19991;-64
2021/03/03 12:05:00;;;;;;;;;;;15.20;66.60;;;;;;5027578;28;20443;-64
2021/03/03 12:07:25;;;;;;;26.08;10.63;;;15.10;65.00;;;;;;5023772;28;19920;-65
2021/03/03 12:09:51;;;;;;;;;;;15.10;66.70;;;;;;5026218;28;20045;-67
2021/03/03 12:12:16;;;;;;;32.25;10.63;;;15.00;65.20;;;;;;5040116;28;19974;-65
2021/03/03 12:14:43;;;;;;;;;;;15.00;65.20;;;;;;5038237;28;20045;-67
2021/03/03 12:17:08;;;;;;;32.00;12.63;;;15.00;65.40;;;;;;5027010;28;19975;-66
2021/03/03 12:19:34;;;;;;;;;;;14.90;66.00;;;;;;5051730;28;20048;-67
2021/03/03 12:22:00;;;;;;;30.58;11.63;;;14.90;65.20;;;;;;5067297;28;20400;-66
2021/03/03 12:24:25;;;;;;;;;;;14.90;65.60;;;;;;5057236;28;20804;-66
2021/03/03 12:26:52;;;;;;;37.45;11.13;;;14.90;65.10;;;;;;5046413;28;19920;-66
2021/03/03 12:29:18;;;;;;;30.42;11.68;;;14.90;66.10;;;;;;5048144;28;20492;-67
2021/03/03 12:31:44;;;;;;;;;;;14.90;66.90;;;;;;5046988;28;20102;-67
2021/03/03 12:34:09;;;;;;;29.35;10.55;;;14.90;65.90;;;;;;5047328;28;20457;-67
2021/03/03 12:36:35;;;;;;;;;;;14.90;65.20;;;;;;5047281;28;20044;-67
2021/03/03 12:39:00;;;;;;;28.45;11.18;;;14.80;63.50;;;;;;5047534;28;19970;-66
2021/03/03 12:41:26;;;;;;;;;;;14.80;66.00;;;;;;5047542;28;20036;-67
2021/03/03 12:43:51;;;;;;;30.73;11.65;;;14.80;65.80;;;;;;5046534;28;19997;-66
2021/03/03 12:46:17;;;;;;;;;;;14.80;65.30;;;;;;5043052;28;20120;-67
2021/03/03 12:48:43;;;;;;;32.25;11.23;;;14.80;65.70;;;;;;5034060;28;20004;-66
2021/03/03 12:51:08;;;;;;;;;;;14.90;64.60;;;;;;5059077;28;20036;-65
2021/03/03 12:53:34;;;;;;;28.65;12.10;;;14.90;64.40;;;;;;5041180;28;19921;-66
2021/03/03 12:55:59;;;;;;;;;;;15.00;66.70;;;;;;5026084;28;20045;-64
2021/03/03 12:58:25;;;;;;;31.58;11.18;;;14.90;64.10;;;;;;5045283;28;20500;-66
2021/03/03 13:00:50;;;;;;;;;;;14.80;65.90;;;;;;5028150;28;20037;-66
2021/03/03 13:03:16;;;;;;;25.85;10.95;;;14.80;64.70;;;;;;5026141;28;19920;-67
2021/03/03 13:05:42;;;;;;;;;;;14.80;63.80;;;;;;5026628;28;20122;-66